Time;durP1;ratioP1;P1;durP2;ratioP2;P2;SDS_P1;SDS_P2;PMS_P1;PMS_P2;Temp;Humidity;BMP_temperature;BMP_pressure;BME280_temperature;BME280_humidity;BME280_pressure;Samples;Min_cycle;Max_cycle;Signal;HPM_P1;HPM_P2
2022/04/17 00:01:15;;;;;;;10.70;6.17;;;7.20;99.90;;;;;;5057668;28;20187;-71
2022/04/17 00:03:59;;;;;;;9.67;6.40;;;7.10;99.90;;;;;;5046999;28;20276;-70
2022/04/17 00:06:44;;;;;;;8.67;5.93;;;7.10;99.90;;;;;;5072739;28;20245;-71
2022/04/17 00:09:29;;;;;;;8.03;6.10;;;7.00;99.90;;;;;;5051434;28;20193;-71
2022/04/17 00:12:14;;;;;;;9.67;5.50;;;7.00;99.90;;;;;;5044247;28;20222;-70
2022/04/17 00:15:00;;;;;;;8.70;5.80;;;7.00;99.90;;;;;;5039213;28;20222;-70
2022/04/17 00:17:45;;;;;;;8.10;5.93;;;7.00;99.90;;;;;;5042082;28;20326;-71
2022/04/17 00:20:30;;;;;;;8.67;5.67;;;6.90;99.90;;;;;;5054073;28;20213;-71
2022/04/17 00:23:14;;;;;;;9.57;5.70;;;6.90;99.90;;;;;;5047702;28;20202;-70
2022/04/17 00:25:59;;;;;;;10.40;5.90;;;6.90;99.90;;;;;;5057199;28;20210;-70
2022/04/17 00:28:44;;;;;;;11.27;6.17;;;6.90;99.90;;;;;;5057393;28;20185;-70
2022/04/17 00:31:29;;;;;;;11.93;6.27;;;6.90;99.90;;;;;;5043235;28;20194;-70
2022/04/17 00:34:26;;;;;;;11.17;5.97;;;6.90;99.90;;;;;;5037327;28;20167;-71
2022/04/17 00:37:14;;;;;;;11.70;6.10;;;6.80;99.90;;;;;;5041850;28;20206;-70
2022/04/17 00:40:00;;;;;;;9.17;6.50;;;6.80;99.90;;;;;;5046018;28;20194;-71
2022/04/17 00:42:46;;;;;;;10.40;6.60;;;6.80;99.90;;;;;;5045730;28;20225;-70
2022/04/17 00:45:31;;;;;;;9.60;6.33;;;6.80;99.90;;;;;;5045760;28;20228;-71
2022/04/17 00:48:17;;;;;;;10.57;7.07;;;6.70;99.90;;;;;;5043207;28;20309;-71
2022/04/17 00:51:03;;;;;;;10.93;6.83;;;6.70;99.90;;;;;;5039064;28;20601;-70
2022/04/17 00:53:53;;;;;;;11.40;7.20;;;6.70;99.90;;;;;;5041438;28;20185;-71
2022/04/17 00:56:41;;;;;;;12.90;6.77;;;6.60;99.90;;;;;;5041399;28;20239;-70
2022/04/17 00:59:27;;;;;;;10.23;7.20;;;6.60;99.90;;;;;;5039537;28;20190;-72
2022/04/17 01:02:15;;;;;;;11.13;7.27;;;6.60;99.90;;;;;;5051371;28;20187;-71
2022/04/17 01:05:01;;;;;;;10.27;6.90;;;6.60;99.90;;;;;;5041856;28;20240;-71
2022/04/17 01:07:52;;;;;;;12.63;6.70;;;6.50;99.90;;;;;;5040467;28;20760;-70
2022/04/17 01:10:41;;;;;;;11.73;7.03;;;6.50;99.90;;;;;;5047625;28;20275;-70
2022/04/17 01:13:26;;;;;;;13.73;7.27;;;6.40;99.90;;;;;;5052263;28;20241;-71
2022/04/17 01:16:11;;;;;;;11.47;7.07;;;6.40;99.90;;;;;;5051757;28;20689;-71
2022/04/17 01:19:02;;;;;;;11.37;7.70;;;6.30;99.90;;;;;;5055825;28;20238;-72
2022/04/17 01:21:47;;;;;;;13.00;7.60;;;6.30;99.90;;;;;;5040887;28;20191;-71
2022/04/17 01:27:36;;;;;;;12.87;6.97;;;6.30;99.90;;;;;;5062764;28;20367;-72
2022/04/17 01:30:23;;;;;;;12.00;7.10;;;6.30;99.90;;;;;;5049889;28;20189;-70
2022/04/17 01:33:08;;;;;;;16.00;7.00;;;6.30;99.90;;;;;;5039552;28;20197;-71
2022/04/17 01:35:53;;;;;;;11.40;6.77;;;6.30;99.90;;;;;;5052770;28;20202;-70
2022/04/17 01:38:38;;;;;;;10.33;6.80;;;6.30;99.90;;;;;;5047773;28;20275;-70
2022/04/17 01:41:23;;;;;;;9.87;6.90;;;6.30;99.90;;;;;;5038571;28;20182;-72
2022/04/17 01:44:08;;;;;;;11.47;6.97;;;6.30;99.90;;;;;;5055931;28;20201;-71
2022/04/17 01:46:53;;;;;;;11.93;7.47;;;6.20;99.90;;;;;;5065858;28;20264;-71
2022/04/17 01:49:37;;;;;;;11.70;7.03;;;6.20;99.90;;;;;;5047474;28;20221;-71
2022/04/17 01:52:22;;;;;;;13.27;7.57;;;6.20;99.90;;;;;;5045508;28;20221;-71
2022/04/17 01:55:08;;;;;;;12.03;7.30;;;6.20;99.90;;;;;;5033924;28;20298;-71
2022/04/17 01:57:53;;;;;;;9.90;6.77;;;6.10;99.90;;;;;;5038537;28;20182;-72
2022/04/17 02:00:38;;;;;;;10.73;6.97;;;6.10;99.90;;;;;;5053069;28;20202;-71
2022/04/17 02:03:23;;;;;;;14.83;7.63;;;6.00;99.90;;;;;;5052658;28;20204;-70
2022/04/17 02:06:18;;;;;;;12.07;7.20;;;6.00;99.90;;;;;;5047503;28;20218;-70
2022/04/17 02:09:03;;;;;;;9.43;6.60;;;6.00;99.90;;;;;;5041995;28;20233;-71
2022/04/17 02:11:48;;;;;;;10.40;7.20;;;6.00;99.90;;;;;;5043528;28;20194;-71
2022/04/17 02:14:32;;;;;;;11.27;7.40;;;6.00;99.90;;;;;;5040555;28;20198;-71
2022/04/17 02:17:16;;;;;;;10.50;6.90;;;6.00;99.90;;;;;;5049043;28;20209;-71
2022/04/17 02:20:00;;;;;;;9.63;6.97;;;5.90;99.90;;;;;;5036791;28;20198;-72
2022/04/17 02:22:45;;;;;;;10.37;6.93;;;5.90;99.90;;;;;;5034647;28;20230;-71
2022/04/17 02:25:30;;;;;;;12.17;7.40;;;5.80;99.90;;;;;;5065684;28;20221;-71
2022/04/17 02:28:14;;;;;;;11.00;6.70;;;5.80;99.90;;;;;;5043562;28;20222;-72
2022/04/17 02:30:59;;;;;;;13.13;8.10;;;5.80;99.90;;;;;;5056375;28;20191;-70
2022/04/17 02:33:44;;;;;;;10.00;7.13;;;5.70;99.90;;;;;;5042721;28;20209;-71
2022/04/17 02:36:28;;;;;;;15.90;7.93;;;5.60;99.90;;;;;;5046794;28;20209;-71
2022/04/17 02:39:19;;;;;;;10.87;7.73;;;5.60;99.90;;;;;;5039149;28;20240;-72
2022/04/17 02:42:07;;;;;;;11.27;7.30;;;5.50;99.90;;;;;;5042989;28;20229;-71
2022/04/17 02:44:52;;;;;;;11.10;7.73;;;5.50;99.90;;;;;;5056880;28;20210;-71
2022/04/17 02:47:43;;;;;;;11.63;7.50;;;5.50;99.90;;;;;;5059343;28;20349;-71
2022/04/17 02:50:28;;;;;;;11.37;8.03;;;5.50;99.90;;;;;;5051944;28;20193;-72
2022/04/17 02:53:13;;;;;;;12.70;8.00;;;5.50;99.90;;;;;;5052988;28;20241;-71
2022/04/17 02:55:57;;;;;;;13.80;8.27;;;5.50;99.90;;;;;;5048809;28;20704;-71
2022/04/17 02:58:42;;;;;;;12.03;7.93;;;5.40;99.90;;;;;;5044083;28;20233;-71
2022/04/17 03:07:34;;;;;;;11.70;8.00;;;5.30;99.90;;;;;;5067162;28;20213;-70
2022/04/17 03:10:20;;;;;;;15.80;8.60;;;5.20;99.90;;;;;;5055339;28;20195;-71
2022/04/17 03:13:05;;;;;;;13.00;7.90;;;5.20;99.90;;;;;;5043350;28;20194;-70
2022/04/17 03:15:50;;;;;;;13.17;7.97;;;5.20;99.90;;;;;;5056580;28;20212;-70
2022/04/17 03:18:44;;;;;;;10.30;7.20;;;5.20;99.90;;;;;;5038624;28;20209;-71
2022/04/17 03:21:31;;;;;;;12.17;7.67;;;5.20;99.90;;;;;;5053725;28;20193;-71
2022/04/17 03:24:16;;;;;;;12.80;7.80;;;5.10;99.90;;;;;;5047626;28;20201;-70
2022/04/17 03:27:01;;;;;;;15.20;8.20;;;5.20;99.90;;;;;;5055626;28;20217;-71
2022/04/17 03:29:47;;;;;;;10.97;7.27;;;5.10;99.90;;;;;;5058288;28;20727;-72
2022/04/17 03:32:33;;;;;;;10.57;7.63;;;5.20;99.90;;;;;;5058134;28;20329;-71
2022/04/17 03:35:19;;;;;;;12.27;8.00;;;5.20;99.90;;;;;;5041141;28;20210;-70
2022/04/17 03:38:07;;;;;;;13.27;8.80;;;5.20;99.90;;;;;;5040175;28;20243;-71
2022/04/17 03:40:52;;;;;;;13.03;8.17;;;5.20;99.90;;;;;;5057886;28;20261;-71
2022/04/17 03:43:40;;;;;;;12.93;8.57;;;5.20;99.90;;;;;;5049133;28;20780;-71
2022/04/17 03:46:26;;;;;;;13.07;8.03;;;5.20;99.90;;;;;;5054451;28;20300;-71
2022/04/17 03:49:10;;;;;;;14.20;8.50;;;5.10;99.90;;;;;;5061584;28;20273;-72
2022/04/17 03:51:55;;;;;;;14.07;8.77;;;5.10;99.90;;;;;;5034463;22;20415;-71
2022/04/17 03:54:39;;;;;;;12.63;9.10;;;5.00;99.90;;;;;;5010412;28;20300;-71
2022/04/17 03:57:23;;;;;;;14.23;8.33;;;5.00;99.90;;;;;;5010086;28;20195;-72
2022/04/17 04:00:14;;;;;;;12.23;8.43;;;5.00;99.90;;;;;;5028289;28;20250;-71
2022/04/17 04:02:59;;;;;;;12.37;8.37;;;5.00;99.90;;;;;;5011606;28;20199;-71
2022/04/17 04:05:44;;;;;;;13.40;8.70;;;5.10;99.90;;;;;;5019729;28;20226;-70
2022/04/17 04:08:29;;;;;;;13.93;8.70;;;5.10;99.90;;;;;;5025962;28;20239;-70
2022/04/17 04:11:13;;;;;;;14.37;8.33;;;5.10;99.90;;;;;;5011433;28;20280;-71
2022/04/17 04:13:57;;;;;;;11.90;8.47;;;5.10;99.90;;;;;;5013273;28;20283;-71
2022/04/17 04:16:42;;;;;;;13.17;8.87;;;5.10;99.90;;;;;;5010718;28;20231;-72
2022/04/17 04:19:27;;;;;;;18.23;8.83;;;5.00;99.90;;;;;;4998279;28;20237;-70
2022/04/17 04:22:12;;;;;;;13.33;9.37;;;5.00;99.90;;;;;;5011720;28;20561;-70
2022/04/17 04:25:07;;;;;;;14.07;9.50;;;5.00;99.90;;;;;;5008597;28;20230;-71
2022/04/17 04:30:55;;;;;;;13.57;8.33;;;4.90;99.90;;;;;;5007924;28;20198;-72
2022/04/17 04:33:43;;;;;;;13.83;8.47;;;4.90;99.90;;;;;;5022694;28;20190;-71
2022/04/17 04:36:28;;;;;;;13.23;8.77;;;4.90;99.90;;;;;;5025733;28;20251;-71
2022/04/17 04:39:12;;;;;;;13.73;8.57;;;4.90;99.90;;;;;;5024315;28;20190;-71
2022/04/17 04:41:57;;;;;;;13.63;8.13;;;4.90;99.90;;;;;;5007350;28;20180;-71
2022/04/17 04:44:41;;;;;;;15.97;8.43;;;4.90;99.90;;;;;;5006569;28;20209;-71
2022/04/17 04:47:26;;;;;;;12.67;8.20;;;4.90;99.90;;;;;;5014664;28;20223;-71
2022/04/17 04:50:14;;;;;;;14.57;8.47;;;4.80;99.90;;;;;;5012549;28;20207;-71
2022/04/17 04:53:02;;;;;;;12.63;8.80;;;4.90;99.90;;;;;;5014339;28;20231;-71
2022/04/17 04:55:47;;;;;;;13.77;9.53;;;4.90;99.90;;;;;;5014435;28;20346;-72
2022/04/17 04:58:31;;;;;;;16.10;9.63;;;4.80;99.90;;;;;;5011953;28;20194;-71
2022/04/17 05:01:15;;;;;;;14.73;9.43;;;4.80;99.90;;;;;;5011885;28;20202;-71
2022/04/17 05:04:00;;;;;;;17.10;9.77;;;4.80;99.90;;;;;;5009643;28;20217;-71
2022/04/17 05:06:46;;;;;;;14.17;9.50;;;4.80;99.90;;;;;;5016694;28;20210;-70
2022/04/17 05:09:30;;;;;;;13.57;9.53;;;4.80;99.90;;;;;;5026814;28;20198;-70
2022/04/17 05:12:15;;;;;;;16.73;9.67;;;4.70;99.90;;;;;;5005103;28;20191;-72
2022/04/17 05:14:59;;;;;;;16.57;10.10;;;4.80;99.90;;;;;;5007082;28;20331;-70
2022/04/17 05:17:43;;;;;;;14.10;9.60;;;4.80;99.90;;;;;;5004723;28;20672;-71
2022/04/17 05:20:28;;;;;;;15.20;9.93;;;4.80;99.90;;;;;;5009274;28;20198;-71
2022/04/17 05:23:19;;;;;;;14.60;9.80;;;4.80;99.90;;;;;;5028147;28;20225;-71
2022/04/17 05:26:04;;;;;;;14.07;9.03;;;4.80;99.90;;;;;;5010479;28;20214;-71
2022/04/17 05:28:48;;;;;;;15.43;10.30;;;4.80;99.90;;;;;;5010162;28;20231;-72
2022/04/17 05:31:32;;;;;;;16.33;9.53;;;4.80;99.90;;;;;;5010876;28;20277;-72
2022/04/17 05:34:16;;;;;;;14.47;9.83;;;4.80;99.90;;;;;;4990980;28;20279;-72
2022/04/17 05:37:01;;;;;;;13.90;9.10;;;4.80;99.90;;;;;;5009955;28;20211;-71
2022/04/17 05:39:45;;;;;;;16.50;10.13;;;4.80;99.90;;;;;;5004720;28;20252;-70
2022/04/17 05:42:29;;;;;;;16.03;9.37;;;4.90;99.90;;;;;;4991096;28;20715;-71
2022/04/17 05:45:13;;;;;;;15.57;9.53;;;4.90;99.90;;;;;;5001908;28;20283;-71
2022/04/17 05:47:58;;;;;;;15.00;10.00;;;4.90;99.90;;;;;;5003758;28;20230;-71
2022/04/17 05:50:42;;;;;;;16.23;10.73;;;4.90;99.90;;;;;;5005662;28;20210;-71
2022/04/17 05:53:26;;;;;;;14.20;9.83;;;5.00;99.90;;;;;;5010524;28;20183;-71
2022/04/17 05:56:10;;;;;;;17.17;10.57;;;5.00;99.90;;;;;;5007935;28;20211;-71
2022/04/17 05:58:55;;;;;;;17.20;9.90;;;5.00;99.90;;;;;;5009234;28;20299;-71
2022/04/17 06:01:39;;;;;;;18.63;9.97;;;5.10;99.90;;;;;;5008317;28;20753;-71
2022/04/17 06:04:24;;;;;;;14.37;10.50;;;5.10;99.90;;;;;;5008361;28;20180;-71
2022/04/17 06:07:11;;;;;;;15.13;9.30;;;5.20;99.90;;;;;;5020385;28;20626;-71
2022/04/17 06:09:56;;;;;;;15.07;9.97;;;5.20;99.90;;;;;;5029599;28;20246;-71
2022/04/17 06:12:41;;;;;;;18.27;10.93;;;5.30;99.90;;;;;;5007385;28;20199;-71
2022/04/17 06:15:25;;;;;;;14.30;10.20;;;5.30;99.90;;;;;;5007365;28;20346;-70
2022/04/17 06:18:10;;;;;;;15.90;9.67;;;5.40;99.90;;;;;;5012308;28;20253;-71
2022/04/17 06:20:55;;;;;;;15.63;9.63;;;5.40;99.90;;;;;;5011426;28;20184;-71
2022/04/17 06:23:39;;;;;;;15.43;9.03;;;5.50;99.90;;;;;;5023170;28;20259;-70
2022/04/17 06:26:24;;;;;;;16.97;9.47;;;5.60;99.90;;;;;;5011935;28;20215;-71
2022/04/17 06:29:08;;;;;;;14.33;9.50;;;5.70;99.90;;;;;;5021921;28;20203;-72
2022/04/17 06:31:52;;;;;;;12.30;8.57;;;5.80;99.90;;;;;;5007012;28;20196;-71
2022/04/17 06:34:36;;;;;;;14.40;8.97;;;5.80;99.90;;;;;;5011445;28;20217;-72
2022/04/17 06:37:20;;;;;;;10.93;8.40;;;5.90;99.90;;;;;;4994333;28;20228;-71
2022/04/17 06:40:05;;;;;;;10.93;8.20;;;6.00;99.90;;;;;;5001846;28;20240;-70
2022/04/17 06:42:51;;;;;;;15.63;8.50;;;6.00;99.90;;;;;;5012608;28;20275;-71
2022/04/17 06:45:38;;;;;;;13.63;8.20;;;6.20;99.90;;;;;;5011404;28;20239;-72
2022/04/17 06:48:23;;;;;;;12.77;7.90;;;6.20;99.90;;;;;;5017884;28;20294;-71
2022/04/17 06:51:07;;;;;;;12.20;7.90;;;6.30;99.90;;;;;;5026922;28;20215;-71
2022/04/17 06:53:52;;;;;;;12.70;8.07;;;6.40;99.90;;;;;;5013871;28;20251;-71
2022/04/17 06:56:37;;;;;;;10.33;7.40;;;6.50;99.90;;;;;;5009772;28;20286;-68
2022/04/17 06:59:21;;;;;;;12.33;8.00;;;6.60;99.90;;;;;;5013613;28;20726;-69
2022/04/17 07:02:06;;;;;;;12.17;7.63;;;6.70;99.90;;;;;;4999673;28;20276;-69
2022/04/17 07:04:50;;;;;;;11.20;7.10;;;6.90;99.90;;;;;;5009248;28;20212;-69
2022/04/17 07:07:34;;;;;;;10.13;7.27;;;6.90;99.90;;;;;;5028263;28;20223;-69
2022/04/17 07:10:18;;;;;;;12.03;7.40;;;7.00;99.90;;;;;;5046266;28;20176;-70
2022/04/17 07:13:07;;;;;;;13.07;7.63;;;7.00;99.90;;;;;;5035061;28;20196;-69
2022/04/17 07:15:51;;;;;;;12.33;8.30;;;7.10;99.90;;;;;;5002714;28;20255;-68
2022/04/17 07:18:35;;;;;;;12.90;7.73;;;7.20;99.90;;;;;;5002106;28;20188;-69
2022/04/17 07:21:19;;;;;;;11.53;7.23;;;7.30;99.90;;;;;;4990246;28;20186;-69
2022/04/17 07:24:04;;;;;;;11.43;8.07;;;7.40;99.90;;;;;;4993127;28;20177;-69
2022/04/17 07:26:48;;;;;;;11.63;8.00;;;7.50;99.90;;;;;;4992896;28;20208;-69
2022/04/17 07:29:32;;;;;;;9.37;6.93;;;7.60;99.90;;;;;;4992943;28;20590;-68
2022/04/17 07:32:17;;;;;;;7.73;6.03;;;7.60;99.90;;;;;;4992755;28;20220;-69
2022/04/17 07:35:01;;;;;;;10.30;6.40;;;7.80;99.90;;;;;;4992736;28;20217;-68
2022/04/17 07:37:50;;;;;;;10.90;7.53;;;7.90;99.90;;;;;;4993899;28;20176;-69
2022/04/17 07:40:35;;;;;;;11.97;7.27;;;8.00;99.90;;;;;;4992723;28;20224;-69
2022/04/17 07:43:19;;;;;;;10.27;7.30;;;8.10;99.90;;;;;;4993091;28;20696;-70
2022/04/17 07:46:04;;;;;;;9.30;6.93;;;8.10;99.90;;;;;;5003982;28;20759;-70
2022/04/17 07:48:48;;;;;;;6.67;5.27;;;8.30;99.90;;;;;;5026801;28;20253;-69
2022/04/17 07:51:33;;;;;;;8.37;5.33;;;8.40;99.90;;;;;;5013533;28;20258;-69
2022/04/17 07:54:17;;;;;;;7.83;5.17;;;8.60;99.90;;;;;;5012548;28;20208;-69
2022/04/17 07:57:01;;;;;;;6.47;4.93;;;8.70;99.90;;;;;;5012777;28;20223;-69
2022/04/17 07:59:45;;;;;;;6.30;5.37;;;8.90;99.90;;;;;;5012327;28;20177;-68
2022/04/17 08:02:39;;;;;;;8.60;5.77;;;9.00;99.90;;;;;;5012464;28;20180;-69
2022/04/17 08:05:23;;;;;;;6.57;4.97;;;9.10;99.90;;;;;;5012152;28;20204;-69
2022/04/17 08:08:09;;;;;;;7.13;4.93;;;9.20;99.90;;;;;;4995003;28;20211;-68
2022/04/17 08:10:53;;;;;;;7.47;5.90;;;9.30;99.90;;;;;;5011888;28;20680;-68
2022/04/17 08:13:37;;;;;;;10.03;4.80;;;9.40;99.90;;;;;;5011650;28;20825;-68
2022/04/17 08:16:22;;;;;;;7.13;5.00;;;9.50;99.90;;;;;;5025349;28;20220;-69
2022/04/17 08:19:06;;;;;;;6.80;4.67;;;9.60;99.90;;;;;;5011892;28;20254;-69
2022/04/17 08:21:51;;;;;;;7.00;5.03;;;9.70;99.90;;;;;;5012380;28;20164;-71
2022/04/17 08:24:36;;;;;;;7.57;5.03;;;9.80;99.90;;;;;;5011366;28;20541;-70
2022/04/17 08:27:20;;;;;;;8.93;5.30;;;9.80;99.90;;;;;;5010876;28;20200;-69
2022/04/17 08:30:05;;;;;;;8.00;5.10;;;9.90;99.90;;;;;;5011031;28;20252;-69
2022/04/17 08:32:50;;;;;;;7.77;5.10;;;10.00;99.90;;;;;;5011193;28;20173;-69
2022/04/17 08:35:35;;;;;;;5.40;4.73;;;10.00;99.90;;;;;;5011110;28;20270;-69
2022/04/17 08:38:21;;;;;;;6.17;4.17;;;10.10;99.90;;;;;;5011474;28;20215;-68
2022/04/17 08:41:06;;;;;;;6.47;4.30;;;10.20;99.90;;;;;;5012153;28;20176;-69
2022/04/17 08:43:50;;;;;;;6.07;4.43;;;10.20;99.90;;;;;;5011141;28;20238;-70
2022/04/17 08:46:34;;;;;;;4.90;4.40;;;10.30;99.90;;;;;;5012039;28;20302;-69
2022/04/17 08:49:19;;;;;;;7.03;3.63;;;10.40;99.90;;;;;;5023316;28;20219;-69
2022/04/17 08:52:08;;;;;;;4.27;3.50;;;10.40;99.90;;;;;;5010889;28;20568;-70
2022/04/17 08:54:54;;;;;;;7.10;4.53;;;10.50;99.90;;;;;;5011394;28;20284;-69
2022/04/17 08:57:38;;;;;;;6.83;4.33;;;10.60;99.90;;;;;;5012412;28;20266;-69
2022/04/17 09:00:22;;;;;;;8.67;3.90;;;10.60;99.90;;;;;;5011743;28;20259;-70
2022/04/17 09:03:08;;;;;;;4.93;3.53;;;10.70;99.90;;;;;;5010806;28;20192;-70
2022/04/17 09:05:53;;;;;;;5.50;3.50;;;10.80;99.90;;;;;;5008588;28;20299;-69
2022/04/17 09:09:02;;;;;;;4.00;3.20;;;10.90;99.90;;;;;;5044696;28;20249;-69
2022/04/17 09:11:53;;;;;;;4.33;3.10;;;11.00;99.90;;;;;;5044470;28;20245;-70
2022/04/17 09:14:39;;;;;;;4.93;3.10;;;11.00;99.90;;;;;;4992051;28;20169;-70
2022/04/17 09:17:33;;;;;;;4.07;2.70;;;11.10;99.90;;;;;;5007055;28;20231;-69
2022/04/17 09:20:19;;;;;;;3.17;2.77;;;11.30;99.90;;;;;;4991775;28;20177;-69
2022/04/17 09:23:03;;;;;;;4.77;2.93;;;11.40;99.90;;;;;;4991608;28;20268;-70
2022/04/17 09:25:48;;;;;;;4.23;2.73;;;11.40;99.90;;;;;;4990197;28;20572;-69
2022/04/17 09:28:34;;;;;;;4.33;2.67;;;11.50;99.90;;;;;;4990879;28;20212;-70
2022/04/17 09:31:18;;;;;;;5.60;3.17;;;11.60;99.90;;;;;;4990721;28;20173;-69
2022/04/17 09:34:07;;;;;;;3.90;2.57;;;11.60;99.90;;;;;;4990784;28;20173;-70
2022/04/17 09:36:55;;;;;;;3.50;2.77;;;11.70;99.90;;;;;;4988827;28;20217;-69
2022/04/17 09:39:40;;;;;;;3.30;2.33;;;11.80;99.90;;;;;;4991074;28;20263;-69
2022/04/17 09:42:26;;;;;;;5.00;2.80;;;11.70;99.90;;;;;;4990619;28;20223;-69
2022/04/17 09:45:10;;;;;;;2.97;2.47;;;11.80;99.90;;;;;;4994353;28;20235;-68
2022/04/17 09:47:58;;;;;;;5.07;2.80;;;11.90;99.90;;;;;;5019824;28;20254;-70
2022/04/17 09:50:43;;;;;;;3.67;2.50;;;11.90;99.90;;;;;;5022040;28;20199;-69
2022/04/17 09:53:35;;;;;;;5.17;2.83;;;12.00;99.90;;;;;;5029297;28;20323;-70
2022/04/17 09:56:32;;;;;;;3.40;2.33;;;12.00;99.90;;;;;;5015917;28;20211;-69
2022/04/17 09:59:27;;;;;;;4.90;2.67;;;12.10;99.90;;;;;;5014843;28;20260;-69
2022/04/17 10:02:12;;;;;;;3.73;2.67;;;12.10;99.90;;;;;;5001003;28;20256;-69
2022/04/17 10:04:59;;;;;;;5.33;2.87;;;12.10;99.90;;;;;;4995796;28;20286;-69
2022/04/17 10:07:46;;;;;;;3.63;2.63;;;12.30;99.90;;;;;;5012364;28;20219;-69
2022/04/17 10:10:31;;;;;;;5.57;2.77;;;12.30;99.90;;;;;;5014241;28;20172;-69
2022/04/17 10:13:15;;;;;;;3.17;2.20;;;12.30;99.90;;;;;;5014351;28;20175;-69
2022/04/17 10:16:03;;;;;;;2.70;2.30;;;12.40;99.90;;;;;;5014207;28;20243;-69
2022/04/17 10:18:48;;;;;;;4.10;2.57;;;12.40;99.90;;;;;;5008138;28;20223;-70
2022/04/17 10:21:35;;;;;;;3.00;2.50;;;12.40;99.90;;;;;;5013784;28;20180;-69
2022/04/17 10:24:21;;;;;;;4.63;2.77;;;12.50;99.90;;;;;;5013862;28;20184;-69
2022/04/17 10:27:07;;;;;;;2.90;2.37;;;12.60;99.90;;;;;;5013824;28;20208;-70
2022/04/17 10:30:03;;;;;;;3.07;2.03;;;12.60;99.90;;;;;;5014718;28;20175;-70
2022/04/17 10:33:03;;;;;;;4.83;2.60;;;12.70;99.90;;;;;;5013711;28;20172;-69
2022/04/17 10:36:09;;;;;;;3.67;2.07;;;12.80;99.90;;;;;;5013519;28;20208;-69
2022/04/17 10:39:13;;;;;;;2.90;2.07;;;12.80;99.90;;;;;;5013835;28;20256;-69
2022/04/17 10:41:58;;;;;;;4.40;2.43;;;12.80;99.90;;;;;;5007535;28;20192;-70
2022/04/17 10:44:45;;;;;;;3.17;2.17;;;13.00;99.90;;;;;;5007844;28;20584;-69
2022/04/17 10:47:30;;;;;;;2.20;2.00;;;13.00;99.90;;;;;;5020068;28;20578;-69
2022/04/17 10:50:21;;;;;;;3.30;2.10;;;13.10;99.90;;;;;;5017355;28;20187;-69
2022/04/17 10:53:28;;;;;;;3.63;2.10;;;13.10;99.90;;;;;;5046577;28;20242;-70
2022/04/17 10:56:16;;;;;;;3.77;2.50;;;13.10;99.90;;;;;;5013536;28;20200;-69
2022/04/17 10:59:05;;;;;;;4.00;2.23;;;13.20;99.90;;;;;;5013301;28;20231;-69
2022/04/17 11:01:54;;;;;;;3.33;2.10;;;13.20;99.90;;;;;;5012333;28;20196;-70
2022/04/17 11:04:55;;;;;;;3.00;2.20;;;13.30;99.90;;;;;;5026118;28;20184;-70
2022/04/17 11:07:39;;;;;;;3.03;2.50;;;13.30;99.90;;;;;;5026861;28;20211;-69
2022/04/17 11:10:25;;;;;;;2.80;2.13;;;13.30;99.90;;;;;;5013753;28;20227;-71
2022/04/17 11:13:09;;;;;;;3.37;2.20;;;13.30;99.90;;;;;;5012870;28;20210;-71
2022/04/17 11:15:58;;;;;;;3.87;2.00;;;13.30;99.90;;;;;;5013633;28;20291;-70
2022/04/17 11:18:43;;;;;;;2.33;1.87;;;13.30;99.90;;;;;;5012654;28;20220;-70
2022/04/17 11:21:42;;;;;;;4.30;2.10;;;13.40;99.90;;;;;;5012292;28;20172;-69
2022/04/17 11:24:29;;;;;;;3.17;1.93;;;13.40;99.90;;;;;;5012804;28;20179;-69
2022/04/17 11:27:13;;;;;;;3.47;2.13;;;13.50;99.90;;;;;;5012556;28;20200;-70
2022/04/17 11:29:58;;;;;;;2.00;1.87;;;13.50;99.90;;;;;;5012736;28;20168;-70
2022/04/17 11:32:43;;;;;;;4.73;2.10;;;13.50;99.90;;;;;;5013382;28;20196;-70
2022/04/17 11:35:27;;;;;;;2.60;2.00;;;13.40;99.90;;;;;;5012858;28;20564;-70
2022/04/17 11:38:12;;;;;;;2.50;2.00;;;13.50;99.90;;;;;;5012567;28;20200;-69
2022/04/17 11:40:58;;;;;;;2.73;1.97;;;13.50;99.90;;;;;;4992992;28;20220;-70
2022/04/17 11:43:58;;;;;;;3.40;1.70;;;13.50;99.90;;;;;;4992182;28;20196;-69
2022/04/17 11:46:42;;;;;;;2.97;1.90;;;13.60;99.90;;;;;;5009637;28;20284;-71
2022/04/17 11:49:32;;;;;;;3.50;2.00;;;13.70;99.90;;;;;;5029221;28;20192;-70
2022/04/17 11:52:21;;;;;;;2.53;2.20;;;13.70;99.90;;;;;;5043381;28;20658;-70
2022/04/17 11:55:07;;;;;;;2.23;1.60;;;13.80;99.90;;;;;;5028028;28;20344;-70
2022/04/17 11:57:52;;;;;;;2.83;1.67;;;13.80;99.90;;;;;;5012155;28;20215;-70
2022/04/17 12:00:36;;;;;;;1.70;1.60;;;13.90;99.90;;;;;;5011725;28;20180;-70
2022/04/17 12:03:20;;;;;;;3.33;1.63;;;14.00;99.90;;;;;;5011922;28;20180;-70
2022/04/17 12:06:06;;;;;;;4.43;1.90;;;14.00;99.90;;;;;;5012397;28;20219;-70
2022/04/17 12:08:50;;;;;;;1.60;1.50;;;14.00;99.90;;;;;;5011573;28;20231;-70
2022/04/17 12:11:36;;;;;;;2.03;1.30;;;14.20;99.90;;;;;;5012782;28;20216;-70
2022/04/17 12:14:30;;;;;;;2.50;1.80;;;14.10;99.90;;;;;;5011809;28;20245;-71
2022/04/17 12:17:20;;;;;;;2.27;1.60;;;14.20;99.90;;;;;;4999719;28;20188;-70
2022/04/17 12:20:10;;;;;;;2.60;1.77;;;14.30;99.90;;;;;;5011479;28;20226;-70
2022/04/17 12:22:54;;;;;;;2.33;1.90;;;14.30;99.90;;;;;;5011189;28;20180;-70
2022/04/17 12:25:39;;;;;;;3.60;1.77;;;14.30;99.90;;;;;;5011238;28;20296;-70
2022/04/17 12:28:23;;;;;;;2.40;2.20;;;14.30;99.90;;;;;;5011910;28;20208;-70
2022/04/17 12:31:07;;;;;;;2.97;1.77;;;14.30;99.90;;;;;;5010771;28;20278;-70
2022/04/17 12:34:08;;;;;;;3.17;2.03;;;14.20;99.90;;;;;;5005163;28;20240;-71
2022/04/17 12:36:52;;;;;;;4.23;1.90;;;14.20;99.90;;;;;;5014752;28;20183;-70
2022/04/17 12:39:36;;;;;;;2.73;1.97;;;14.20;99.90;;;;;;5025628;28;20171;-70
2022/04/17 12:42:20;;;;;;;2.23;1.60;;;14.20;99.90;;;;;;5010403;28;20191;-70
2022/04/17 12:45:06;;;;;;;1.97;1.77;;;14.30;99.90;;;;;;5010920;28;20298;-70
2022/04/17 12:48:04;;;;;;;2.50;1.47;;;14.40;99.90;;;;;;5016914;28;20200;-70
2022/04/17 12:51:04;;;;;;;2.23;1.80;;;14.50;99.90;;;;;;5010820;28;20261;-70
2022/04/17 12:53:50;;;;;;;1.83;1.63;;;14.50;99.90;;;;;;5021191;28;20224;-70
2022/04/17 12:56:34;;;;;;;2.53;2.00;;;14.60;99.90;;;;;;5010584;28;20207;-70
2022/04/17 12:59:21;;;;;;;2.13;1.57;;;14.60;99.90;;;;;;5011743;28;20175;-70
2022/04/17 13:02:22;;;;;;;1.50;1.40;;;14.60;99.90;;;;;;5010121;28;20173;-70
2022/04/17 13:05:06;;;;;;;1.53;1.40;;;14.60;99.90;;;;;;4990356;28;20212;-70
2022/04/17 13:07:51;;;;;;;2.93;1.93;;;14.50;99.90;;;;;;5002690;28;20197;-71
2022/04/17 13:10:36;;;;;;;1.90;1.80;;;14.70;99.90;;;;;;5004881;28;20177;-69
2022/04/17 13:13:38;;;;;;;3.13;1.73;;;14.70;99.90;;;;;;4992084;28;20177;-70
2022/04/17 13:16:23;;;;;;;2.13;1.70;;;14.70;99.90;;;;;;5010427;28;20266;-70
2022/04/17 13:19:07;;;;;;;1.60;1.50;;;14.70;99.90;;;;;;5010567;28;20180;-70
2022/04/17 13:21:52;;;;;;;2.40;1.60;;;14.70;99.90;;;;;;5010432;28;20175;-70
2022/04/17 13:24:36;;;;;;;2.67;1.40;;;14.70;99.90;;;;;;5010537;28;20223;-71
2022/04/17 13:27:20;;;;;;;2.00;1.80;;;14.80;99.90;;;;;;5010401;28;20239;-70
2022/04/17 13:30:10;;;;;;;1.70;1.60;;;14.70;99.90;;;;;;5009905;28;20242;-70
2022/04/17 13:32:54;;;;;;;2.23;1.43;;;14.70;99.90;;;;;;5011110;28;20180;-70
2022/04/17 13:35:39;;;;;;;1.93;1.33;;;14.80;99.60;;;;;;5010388;28;20204;-70
2022/04/17 13:38:23;;;;;;;1.83;1.30;;;14.90;99.80;;;;;;5010396;28;20601;-69
2022/04/17 13:41:08;;;;;;;2.27;1.60;;;14.90;99.80;;;;;;5010354;28;20279;-70
2022/04/17 13:43:53;;;;;;;1.87;1.40;;;14.90;99.80;;;;;;5011402;28;20545;-70
2022/04/17 13:46:38;;;;;;;1.63;1.53;;;14.90;99.80;;;;;;5007547;28;20231;-70
2022/04/17 13:49:22;;;;;;;3.17;1.67;;;15.00;99.90;;;;;;5027003;28;20226;-70
2022/04/17 13:52:06;;;;;;;1.60;1.50;;;15.00;99.40;;;;;;5010148;28;20191;-70
2022/04/17 13:54:50;;;;;;;1.70;1.60;;;14.90;99.60;;;;;;5009352;28;20263;-69
2022/04/17 13:57:35;;;;;;;2.85;1.50;;;14.90;99.60;;;;;;5007747;28;20411;-69
2022/04/17 14:00:19;;;;;;;1.37;1.27;;;15.00;98.80;;;;;;5005761;28;20188;-71
2022/04/17 14:03:04;;;;;;;1.57;1.33;;;15.10;98.00;;;;;;5017701;28;20282;-70
2022/04/17 14:05:49;;;;;;;2.83;1.60;;;15.10;97.70;;;;;;4999481;28;20549;-70
2022/04/17 14:08:33;;;;;;;1.90;1.30;;;15.20;98.10;;;;;;5006841;28;20227;-70
2022/04/17 14:11:18;;;;;;;2.15;1.70;;;15.20;98.20;;;;;;5003681;28;20404;-71
2022/04/17 14:14:02;;;;;;;1.83;1.43;;;15.30;98.20;;;;;;5008982;28;20179;-71
2022/04/17 14:16:46;;;;;;;2.30;1.40;;;15.30;98.00;;;;;;5010358;28;20705;-70
2022/04/17 14:19:31;;;;;;;1.50;1.20;;;15.30;96.90;;;;;;4992086;28;20204;-69
2022/04/17 14:22:17;;;;;;;2.20;1.53;;;15.30;96.60;;;;;;4990397;28;20184;-70
2022/04/17 14:25:01;;;;;;;1.53;1.30;;;15.30;97.10;;;;;;5006284;28;20215;-70
2022/04/17 14:27:45;;;;;;;2.30;1.70;;;15.30;96.30;;;;;;5019763;28;20344;-69
2022/04/17 14:30:29;;;;;;;1.67;1.20;;;15.30;96.00;;;;;;5008576;28;20277;-70
2022/04/17 14:33:14;;;;;;;1.57;1.13;;;15.30;95.60;;;;;;5009803;28;20223;-70
2022/04/17 14:35:58;;;;;;;1.30;1.20;;;15.30;95.80;;;;;;5010106;28;20247;-70
2022/04/17 14:38:42;;;;;;;1.90;1.50;;;15.30;96.00;;;;;;5010133;28;20228;-70